Time;durP1;ratioP1;P1;durP2;ratioP2;P2;SDS_P1;SDS_P2;PMS_P1;PMS_P2;Temp;Humidity;BMP_temperature;BMP_pressure;BME280_temperature;BME280_humidity;BME280_pressure;Samples;Min_cycle;Max_cycle;Signal;HPM_P1;HPM_P2
2022/04/24 00:00:11;;;;;;;5.63;4.70;;;;;;;;;;5132328;28;20461;-76
2022/04/24 00:02:39;;;;;;;4.13;3.83;;;;;;;;;;5134139;28;20440;-76
2022/04/24 00:05:06;;;;;;;4.27;3.80;;;;;;;;;;5133631;28;20907;-76
2022/04/24 00:07:33;;;;;;;4.40;4.00;;;;;;;;;;5129910;28;20452;-76
2022/04/24 00:10:00;;;;;;;4.63;4.07;;;;;;;;;;5130052;28;20520;-76
2022/04/24 00:12:28;;;;;;;4.23;3.87;;;;;;;;;;5131204;28;20462;-76
2022/04/24 00:14:56;;;;;;;5.50;4.53;;;;;;;;;;5131470;27;20878;-76
2022/04/24 00:17:23;;;;;;;4.67;4.27;;;;;;;;;;5136224;27;20437;-76
2022/04/24 00:19:50;;;;;;;5.17;4.53;;;;;;;;;;5136439;27;20437;-76
2022/04/24 00:22:17;;;;;;;4.50;4.10;;;;;;;;;;5135887;27;20549;-76
2022/04/24 00:24:45;;;;;;;4.47;4.07;;;;;;;;;;5137692;27;20433;-75
2022/04/24 00:27:12;;;;;;;4.67;4.00;;;;;;;;;;5137789;27;20441;-75
2022/04/24 00:29:39;;;;;;;4.87;4.40;;;;;;;;;;5133757;27;20478;-76
2022/04/24 00:32:08;;;;;;;4.43;4.03;;;;;;;;;;5133233;27;20464;-76
2022/04/24 00:34:35;;;;;;;4.50;3.87;;;;;;;;;;5114710;28;20482;-76
2022/04/24 00:37:02;;;;;;;4.90;4.47;;;;;;;;;;5113687;28;20530;-75
2022/04/24 00:39:30;;;;;;;5.27;4.50;;;;;;;;;;5115458;28;20940;-75
2022/04/24 00:41:57;;;;;;;4.37;3.97;;;;;;;;;;5115720;28;20485;-76
2022/04/24 00:44:24;;;;;;;4.53;4.13;;;;;;;;;;5115078;28;20476;-77
2022/04/24 00:46:53;;;;;;;5.10;4.60;;;;;;;;;;5117166;28;20442;-77
2022/04/24 00:49:21;;;;;;;5.67;5.10;;;;;;;;;;5117080;28;20945;-76
2022/04/24 00:51:49;;;;;;;4.90;4.50;;;;;;;;;;5129389;27;20457;-75
2022/04/24 00:54:16;;;;;;;5.57;5.07;;;;;;;;;;5132698;27;20465;-76
2022/04/24 00:56:44;;;;;;;5.03;4.47;;;;;;;;;;5134579;27;20441;-76
2022/04/24 00:59:12;;;;;;;5.30;4.80;;;;;;;;;;5133944;27;20449;-76
2022/04/24 01:01:40;;;;;;;4.63;4.23;;;;;;;;;;5135586;27;20467;-76
2022/04/24 01:04:08;;;;;;;4.60;4.20;;;;;;;;;;5134798;27;20789;-76
2022/04/24 01:06:39;;;;;;;5.27;4.77;;;;;;;;;;5134695;27;20452;-76
2022/04/24 01:09:10;;;;;;;4.80;4.40;;;;;;;;;;5137050;27;20441;-76
2022/04/24 01:11:37;;;;;;;7.47;4.30;;;;;;;;;;5137274;27;20511;-76
2022/04/24 01:14:05;;;;;;;5.77;5.13;;;;;;;;;;5134218;27;20469;-76
2022/04/24 01:16:32;;;;;;;5.13;4.63;;;;;;;;;;5132398;27;20438;-75
2022/04/24 01:18:59;;;;;;;4.87;4.47;;;;;;;;;;5133926;27;20449;-75
2022/04/24 01:21:28;;;;;;;5.43;4.93;;;;;;;;;;5134523;27;20462;-76
2022/04/24 01:23:55;;;;;;;4.87;4.47;;;;;;;;;;5135201;27;20437;-76
2022/04/24 01:26:22;;;;;;;5.07;4.57;;;;;;;;;;5134812;27;20473;-75
2022/04/24 01:28:49;;;;;;;4.67;4.27;;;;;;;;;;5134027;27;20445;-75
2022/04/24 01:31:16;;;;;;;6.10;5.60;;;;;;;;;;5135862;27;20488;-75
2022/04/24 01:33:45;;;;;;;5.20;4.70;;;;;;;;;;5136617;27;20993;-76
2022/04/24 01:36:12;;;;;;;4.77;4.27;;;;;;;;;;5133288;27;20775;-75
2022/04/24 01:38:41;;;;;;;6.10;4.43;;;;;;;;;;5132074;27;20452;-75
2022/04/24 01:41:08;;;;;;;5.20;4.73;;;;;;;;;;5132695;27;20461;-75
2022/04/24 01:43:36;;;;;;;5.30;4.50;;;;;;;;;;5134358;27;20430;-75
2022/04/24 01:46:04;;;;;;;5.30;4.80;;;;;;;;;;5133053;27;20922;-75
2022/04/24 01:48:33;;;;;;;4.80;4.30;;;;;;;;;;5134500;27;20975;-75
2022/04/24 01:51:00;;;;;;;7.33;5.30;;;;;;;;;;5134999;27;20860;-75
2022/04/24 01:53:28;;;;;;;5.60;5.00;;;;;;;;;;5135052;27;20473;-76
2022/04/24 01:55:57;;;;;;;5.53;4.70;;;;;;;;;;5136355;27;20625;-75
2022/04/24 01:58:24;;;;;;;5.03;4.53;;;;;;;;;;5135226;27;20433;-75
2022/04/24 02:00:51;;;;;;;6.63;5.00;;;;;;;;;;5131601;27;20464;-75
2022/04/24 02:03:18;;;;;;;5.17;4.67;;;;;;;;;;5131820;27;20462;-75
2022/04/24 02:05:46;;;;;;;6.10;5.10;;;;;;;;;;5133913;27;20438;-75
2022/04/24 02:08:13;;;;;;;5.37;4.87;;;;;;;;;;5133706;27;20803;-75
2022/04/24 02:10:41;;;;;;;5.07;4.57;;;;;;;;;;5133970;27;20462;-75
2022/04/24 02:13:09;;;;;;;5.37;4.87;;;;;;;;;;5134108;27;20444;-75
2022/04/24 02:15:37;;;;;;;5.70;5.10;;;;;;;;;;5133967;27;20479;-75
2022/04/24 02:18:04;;;;;;;5.23;4.73;;;;;;;;;;5135831;27;20442;-75
2022/04/24 02:20:31;;;;;;;5.50;4.93;;;;;;;;;;5134253;27;20453;-75
2022/04/24 02:22:59;;;;;;;8.23;5.37;;;;;;;;;;5131010;27;20756;-75
2022/04/24 02:25:26;;;;;;;6.87;6.10;;;;;;;;;;5131366;27;20461;-75
2022/04/24 02:27:54;;;;;;;5.80;5.30;;;;;;;;;;5132941;27;20472;-76
2022/04/24 02:30:23;;;;;;;5.60;5.10;;;;;;;;;;5132918;27;20450;-75
2022/04/24 02:32:50;;;;;;;6.07;5.57;;;;;;;;;;5133800;27;21183;-75
2022/04/24 02:35:17;;;;;;;5.00;4.57;;;;;;;;;;5133872;27;20477;-76
2022/04/24 02:37:45;;;;;;;5.90;4.73;;;;;;;;;;5132171;27;20533;-76
2022/04/24 02:40:14;;;;;;;7.37;5.77;;;;;;;;;;5135571;27;20453;-76
2022/04/24 02:42:41;;;;;;;5.87;5.27;;;;;;;;;;5135043;27;20801;-76
2022/04/24 02:45:09;;;;;;;6.67;5.70;;;;;;;;;;5131302;27;20434;-76
2022/04/24 02:47:39;;;;;;;10.03;5.33;;;;;;;;;;5130583;27;20525;-75
2022/04/24 02:50:07;;;;;;;5.80;5.30;;;;;;;;;;5132449;27;20452;-75
2022/04/24 02:52:34;;;;;;;5.77;5.17;;;;;;;;;;5131791;27;20437;-76
2022/04/24 02:55:01;;;;;;;8.20;4.87;;;;;;;;;;5133156;27;20499;-76
2022/04/24 02:57:30;;;;;;;6.13;5.33;;;;;;;;;;5133282;27;20445;-76
2022/04/24 02:59:57;;;;;;;5.37;4.87;;;;;;;;;;5132662;27;20461;-75
2022/04/24 03:02:24;;;;;;;6.07;5.27;;;;;;;;;;5134878;27;20469;-75
2022/04/24 03:04:53;;;;;;;5.47;4.97;;;;;;;;;;5134934;27;20803;-75
2022/04/24 03:07:20;;;;;;;5.90;5.30;;;;;;;;;;5131636;27;20464;-76
2022/04/24 03:09:47;;;;;;;5.47;4.97;;;;;;;;;;5130136;27;20426;-76
2022/04/24 03:12:14;;;;;;;5.33;4.83;;;;;;;;;;5131990;27;20462;-76
2022/04/24 03:14:41;;;;;;;6.57;5.23;;;;;;;;;;5132217;27;20480;-76
2022/04/24 03:17:08;;;;;;;5.20;4.73;;;;;;;;;;5132915;27;20910;-76
2022/04/24 03:19:36;;;;;;;5.40;4.73;;;;;;;;;;5133220;27;20441;-76
2022/04/24 03:22:04;;;;;;;5.23;4.73;;;;;;;;;;5132221;27;20469;-76
2022/04/24 03:24:31;;;;;;;5.50;5.00;;;;;;;;;;5133777;27;20457;-76
2022/04/24 03:26:58;;;;;;;5.27;4.77;;;;;;;;;;5134188;27;20918;-76
2022/04/24 03:29:26;;;;;;;5.00;4.60;;;;;;;;;;5131750;27;20433;-75
2022/04/24 03:31:53;;;;;;;5.47;4.87;;;;;;;;;;5129744;27;20458;-76
2022/04/24 03:34:20;;;;;;;5.10;4.70;;;;;;;;;;5131052;27;20814;-75
2022/04/24 03:36:47;;;;;;;6.00;5.50;;;;;;;;;;5131951;27;20441;-77
2022/04/24 03:39:16;;;;;;;5.73;5.23;;;;;;;;;;5132570;27;20437;-76
2022/04/24 03:41:43;;;;;;;5.77;5.27;;;;;;;;;;5132657;27;20468;-76
2022/04/24 03:44:10;;;;;;;6.50;4.70;;;;;;;;;;5132345;27;20898;-76
2022/04/24 03:46:37;;;;;;;6.40;5.80;;;;;;;;;;5133198;27;20461;-75
2022/04/24 03:49:04;;;;;;;6.20;5.60;;;;;;;;;;5134138;28;20806;-77
2022/04/24 03:51:31;;;;;;;5.97;5.47;;;;;;;;;;5131337;27;20805;-76
2022/04/24 03:53:59;;;;;;;6.07;5.00;;;;;;;;;;5129766;28;20469;-77
2022/04/24 03:56:31;;;;;;;6.03;5.47;;;;;;;;;;5130877;28;20473;-76
2022/04/24 03:58:58;;;;;;;5.83;5.23;;;;;;;;;;5132067;28;20449;-76
2022/04/24 04:01:25;;;;;;;5.80;5.23;;;;;;;;;;5132012;28;20461;-77
2022/04/24 04:03:52;;;;;;;6.03;5.53;;;;;;;;;;5132345;28;20438;-77
2022/04/24 04:06:20;;;;;;;5.80;5.27;;;;;;;;;;5132669;28;20445;-77
2022/04/24 04:08:47;;;;;;;6.30;5.70;;;;;;;;;;5133027;28;20459;-76
2022/04/24 04:11:14;;;;;;;6.07;5.57;;;;;;;;;;5133883;28;20962;-77
2022/04/24 04:13:43;;;;;;;5.83;5.33;;;;;;;;;;5132597;28;20437;-76
2022/04/24 04:16:10;;;;;;;5.60;5.10;;;;;;;;;;5129359;28;20442;-77
2022/04/24 04:18:37;;;;;;;6.40;5.80;;;;;;;;;;5130392;28;20818;-77
2022/04/24 04:21:04;;;;;;;6.23;5.70;;;;;;;;;;5131938;28;20458;-77
2022/04/24 04:23:31;;;;;;;6.60;5.80;;;;;;;;;;5131965;28;20849;-76
2022/04/24 04:25:58;;;;;;;6.10;5.60;;;;;;;;;;5131907;28;20461;-76
2022/04/24 04:28:26;;;;;;;6.50;5.40;;;;;;;;;;5132497;28;20452;-76
2022/04/24 04:30:54;;;;;;;6.63;5.80;;;;;;;;;;5132262;28;20483;-77
2022/04/24 04:33:21;;;;;;;5.37;4.87;;;;;;;;;;5133810;28;20448;-76
2022/04/24 04:35:49;;;;;;;4.83;4.40;;;;;;;;;;5133023;28;20563;-76
2022/04/24 04:38:16;;;;;;;5.40;4.90;;;;;;;;;;5129196;28;20456;-77
2022/04/24 04:40:43;;;;;;;5.63;5.13;;;;;;;;;;5130010;28;20457;-76
2022/04/24 04:43:11;;;;;;;4.93;4.47;;;;;;;;;;5131836;28;20481;-76
2022/04/24 04:45:38;;;;;;;6.07;5.50;;;;;;;;;;5131456;28;20845;-76
2022/04/24 04:48:06;;;;;;;5.90;5.33;;;;;;;;;;5132232;28;20433;-77
2022/04/24 04:50:34;;;;;;;5.10;4.60;;;;;;;;;;5132213;28;20462;-76
2022/04/24 04:53:01;;;;;;;6.67;5.30;;;;;;;;;;5132041;28;20449;-76
2022/04/24 04:55:28;;;;;;;6.30;5.30;;;;;;;;;;5133568;28;20483;-76
2022/04/24 04:57:56;;;;;;;5.57;5.07;;;;;;;;;;5133650;28;20444;-77
2022/04/24 05:00:23;;;;;;;5.27;4.83;;;;;;;;;;5128994;28;20448;-77
2022/04/24 05:02:50;;;;;;;5.23;4.73;;;;;;;;;;5130707;27;20425;-76
2022/04/24 05:05:19;;;;;;;5.07;4.67;;;;;;;;;;5134993;27;20453;-77
2022/04/24 05:07:47;;;;;;;5.70;5.07;;;;;;;;;;5134873;27;20480;-77
2022/04/24 05:10:14;;;;;;;5.47;4.97;;;;;;;;;;5134369;27;21014;-76
2022/04/24 05:12:41;;;;;;;5.33;4.83;;;;;;;;;;5135718;27;20438;-77
2022/04/24 05:15:11;;;;;;;5.60;5.10;;;;;;;;;;5133772;27;20481;-76
2022/04/24 05:17:38;;;;;;;5.00;4.60;;;;;;;;;;5137340;27;20795;-77
2022/04/24 05:20:06;;;;;;;6.40;5.50;;;;;;;;;;5137141;27;20449;-76
2022/04/24 05:22:34;;;;;;;5.60;5.10;;;;;;;;;;5133816;27;20426;-76
2022/04/24 05:25:01;;;;;;;5.70;5.20;;;;;;;;;;5132292;27;20465;-76
2022/04/24 05:27:28;;;;;;;7.07;5.80;;;;;;;;;;5134329;27;20446;-76
2022/04/24 05:29:56;;;;;;;6.23;5.63;;;;;;;;;;5134933;27;20434;-75
2022/04/24 05:32:23;;;;;;;6.00;5.40;;;;;;;;;;5134964;27;20493;-76
2022/04/24 05:34:50;;;;;;;5.80;5.30;;;;;;;;;;5135128;27;20481;-76
2022/04/24 05:37:17;;;;;;;4.93;4.53;;;;;;;;;;5134400;27;20456;-76
2022/04/24 05:39:46;;;;;;;6.70;6.10;;;;;;;;;;5133505;27;20817;-76
2022/04/24 05:42:13;;;;;;;6.10;5.50;;;;;;;;;;5132176;27;20457;-76
2022/04/24 05:44:40;;;;;;;6.60;6.00;;;;;;;;;;5133413;27;20441;-77
2022/04/24 05:47:07;;;;;;;5.37;4.87;;;;;;;;;;5134604;27;20438;-77
2022/04/24 05:49:35;;;;;;;7.00;6.30;;;;;;;;;;5134433;27;20522;-77
2022/04/24 05:52:02;;;;;;;6.93;6.23;;;;;;;;;;5134675;27;20457;-76
2022/04/24 05:54:30;;;;;;;6.83;6.20;;;;;;;;;;5134626;27;20838;-76
2022/04/24 05:56:58;;;;;;;6.23;5.67;;;;;;;;;;5135482;27;20506;-77
2022/04/24 05:59:25;;;;;;;6.33;5.40;;;;;;;;;;5136505;27;20922;-77
2022/04/24 06:01:52;;;;;;;6.00;5.50;;;;;;;;;;5135180;27;20452;-77
2022/04/24 06:04:19;;;;;;;6.43;5.83;;;;;;;;;;5131599;27;20817;-76
2022/04/24 06:06:47;;;;;;;7.40;6.70;;;;;;;;;;5131575;27;20440;-76
2022/04/24 06:09:14;;;;;;;7.00;6.30;;;;;;;;;;5134212;27;20446;-76
2022/04/24 06:11:43;;;;;;;7.80;7.00;;;;;;;;;;5133993;27;20473;-76
2022/04/24 06:14:11;;;;;;;6.67;6.00;;;;;;;;;;5133766;27;20473;-76
2022/04/24 06:16:38;;;;;;;7.53;6.87;;;;;;;;;;5134410;27;20492;-77
2022/04/24 06:19:06;;;;;;;8.70;6.60;;;;;;;;;;5134395;27;20460;-77
2022/04/24 06:21:33;;;;;;;6.23;5.63;;;;;;;;;;5135619;27;20517;-78
2022/04/24 06:24:00;;;;;;;6.77;5.90;;;;;;;;;;5136102;27;20445;-77
2022/04/24 06:26:28;;;;;;;6.23;5.73;;;;;;;;;;5131525;27;20476;-77
2022/04/24 06:28:55;;;;;;;6.40;5.90;;;;;;;;;;5131440;27;20433;-77
2022/04/24 06:31:23;;;;;;;7.57;6.87;;;;;;;;;;5133060;27;20811;-77
2022/04/24 06:33:50;;;;;;;7.03;5.53;;;;;;;;;;5133279;27;20441;-77
2022/04/24 06:36:18;;;;;;;5.87;5.37;;;;;;;;;;5133952;27;20475;-77
2022/04/24 06:38:45;;;;;;;7.40;6.80;;;;;;;;;;5134418;27;20460;-77
2022/04/24 06:41:12;;;;;;;6.97;6.30;;;;;;;;;;5133031;27;20497;-75
2022/04/24 06:43:39;;;;;;;7.50;6.77;;;;;;;;;;5135409;27;20531;-78
2022/04/24 06:46:06;;;;;;;7.37;6.77;;;;;;;;;;5135346;27;20440;-76
2022/04/24 06:48:36;;;;;;;6.33;5.83;;;;;;;;;;5132393;27;20433;-76
2022/04/24 06:51:03;;;;;;;7.03;6.33;;;;;;;;;;5130345;27;20936;-76
2022/04/24 06:53:30;;;;;;;7.10;6.43;;;;;;;;;;5132379;27;20412;-78
2022/04/24 06:55:58;;;;;;;6.13;5.60;;;;;;;;;;5132526;27;20959;-76
2022/04/24 06:58:25;;;;;;;7.13;6.53;;;;;;;;;;5133205;27;20412;-76
2022/04/24 07:00:54;;;;;;;5.60;5.10;;;;;;;;;;5133354;27;20506;-75
2022/04/24 07:03:22;;;;;;;6.83;6.20;;;;;;;;;;5131650;27;20449;-76
2022/04/24 07:05:53;;;;;;;7.27;6.57;;;;;;;;;;5134003;27;20434;-76
2022/04/24 07:08:21;;;;;;;6.20;5.60;;;;;;;;;;5134906;27;20512;-76
2022/04/24 07:10:48;;;;;;;7.67;6.97;;;;;;;;;;5132502;27;20462;-76
2022/04/24 07:13:15;;;;;;;6.75;6.25;;;;;;;;;;5129419;27;20431;-77
2022/04/24 07:15:43;;;;;;;7.00;6.30;;;;;;;;;;5131067;27;20217;-77
2022/04/24 07:18:10;;;;;;;7.63;6.93;;;;;;;;;;5132451;27;20454;-75
2022/04/24 07:20:38;;;;;;;6.67;6.07;;;;;;;;;;5132460;27;20831;-79
2022/04/24 07:23:07;;;;;;;7.60;6.90;;;;;;;;;;5132731;27;20413;-75
2022/04/24 07:25:37;;;;;;;6.97;6.37;;;;;;;;;;5131606;27;20470;-75
2022/04/24 07:28:05;;;;;;;6.73;6.00;;;;;;;;;;5131769;27;20430;-75
2022/04/24 07:30:32;;;;;;;6.43;5.70;;;;;;;;;;5130003;27;20460;-76
2022/04/24 07:33:00;;;;;;;6.97;6.37;;;;;;;;;;5129600;27;20429;-77
2022/04/24 07:35:29;;;;;;;6.03;5.53;;;;;;;;;;5132370;27;20452;-76
2022/04/24 07:37:57;;;;;;;5.87;5.37;;;;;;;;;;5131268;27;20451;-76
2022/04/24 07:40:26;;;;;;;6.20;5.60;;;;;;;;;;5132609;27;20442;-75
2022/04/24 07:42:55;;;;;;;5.57;5.00;;;;;;;;;;5132855;27;20446;-75
2022/04/24 07:45:23;;;;;;;6.23;5.73;;;;;;;;;;5132091;27;20455;-76
2022/04/24 07:47:51;;;;;;;6.50;6.00;;;;;;;;;;5133330;27;20453;-77
2022/04/24 07:50:22;;;;;;;6.57;6.07;;;;;;;;;;5132824;27;20447;-76
2022/04/24 07:52:49;;;;;;;7.20;6.30;;;;;;;;;;5130025;28;20788;-77
2022/04/24 07:55:18;;;;;;;6.90;6.30;;;;;;;;;;5129117;28;20476;-77
2022/04/24 07:57:46;;;;;;;6.83;6.23;;;;;;;;;;5131852;28;20502;-77
2022/04/24 08:00:17;;;;;;;7.30;5.70;;;;;;;;;;5132126;28;20479;-75
2022/04/24 08:02:47;;;;;;;6.80;6.30;;;;;;;;;;5131449;28;20457;-76
2022/04/24 08:05:14;;;;;;;6.93;6.33;;;;;;;;;;5131588;28;20496;-78
2022/04/24 08:07:41;;;;;;;7.07;6.47;;;;;;;;;;5132590;28;20463;-78
2022/04/24 08:10:08;;;;;;;6.00;5.50;;;;;;;;;;5134364;28;20448;-74
2022/04/24 08:12:35;;;;;;;6.23;5.73;;;;;;;;;;5134387;28;20419;-76
2022/04/24 08:15:04;;;;;;;5.20;4.80;;;;;;;;;;5130289;28;20439;-77
2022/04/24 08:17:31;;;;;;;6.73;6.03;;;;;;;;;;5129846;28;20437;-78
2022/04/24 08:19:58;;;;;;;7.70;6.93;;;;;;;;;;5131681;28;20458;-74
2022/04/24 08:22:26;;;;;;;6.00;5.50;;;;;;;;;;5131620;28;21020;-76
2022/04/24 08:24:53;;;;;;;5.70;5.20;;;;;;;;;;5132713;28;20445;-77
2022/04/24 08:27:23;;;;;;;6.83;6.10;;;;;;;;;;5091900;28;20518;-76
2022/04/24 08:29:50;;;;;;;6.40;5.77;;;;;;;;;;5090902;28;20452;-76
2022/04/24 08:32:21;;;;;;;5.80;5.30;;;;;;;;;;5093096;28;20445;-75
2022/04/24 08:34:48;;;;;;;5.97;5.47;;;;;;;;;;5093094;28;20432;-76
2022/04/24 08:37:15;;;;;;;6.07;5.57;;;;;;;;;;5092666;28;20572;-76
2022/04/24 08:39:42;;;;;;;6.17;5.67;;;;;;;;;;5092326;28;20439;-79
2022/04/24 08:42:10;;;;;;;5.93;5.40;;;;;;;;;;5093949;28;20822;-75
2022/04/24 08:44:38;;;;;;;5.93;5.43;;;;;;;;;;5093457;28;20804;-75
2022/04/24 08:47:05;;;;;;;6.50;5.90;;;;;;;;;;5094909;28;20436;-74
2022/04/24 08:49:34;;;;;;;6.47;5.97;;;;;;;;;;5094971;28;20440;-75
2022/04/24 08:52:01;;;;;;;7.20;6.60;;;;;;;;;;5094814;28;20606;-75
2022/04/24 08:54:29;;;;;;;7.10;6.50;;;;;;;;;;5095740;28;20459;-75
2022/04/24 08:56:56;;;;;;;7.10;6.40;;;;;;;;;;5096573;28;20496;-75
2022/04/24 08:59:23;;;;;;;7.33;6.60;;;;;;;;;;5095370;28;20510;-74
2022/04/24 09:01:51;;;;;;;6.90;6.20;;;;;;;;;;5091734;28;20451;-75
2022/04/24 09:04:20;;;;;;;7.83;7.13;;;;;;;;;;5092453;28;20512;-75
2022/04/24 09:06:57;;;;;;;6.90;6.30;;;;;;;;;;5094495;28;20516;-75
2022/04/24 09:09:24;;;;;;;7.77;7.07;;;;;;;;;;5093023;28;20439;-75
2022/04/24 09:11:51;;;;;;;7.83;7.13;;;;;;;;;;5094333;28;20459;-74
2022/04/24 09:14:19;;;;;;;7.27;6.67;;;;;;;;;;5094793;28;20440;-74
2022/04/24 09:16:49;;;;;;;7.10;6.40;;;;;;;;;;5093155;28;20483;-74
2022/04/24 09:19:20;;;;;;;7.43;6.67;;;;;;;;;;5096224;28;20458;-76
2022/04/24 09:21:47;;;;;;;15.33;11.93;;;;;;;;;;5096122;28;20517;-75
2022/04/24 09:24:16;;;;;;;13.93;9.50;;;;;;;;;;5090297;28;20436;-75
2022/04/24 09:26:51;;;;;;;9.00;8.10;;;;;;;;;;5122982;27;21135;-75
2022/04/24 09:29:18;;;;;;;8.67;7.33;;;;;;;;;;5134353;27;20441;-75
2022/04/24 09:31:46;;;;;;;7.80;7.10;;;;;;;;;;5134602;27;20457;-75
2022/04/24 09:34:13;;;;;;;8.20;7.47;;;;;;;;;;5135353;27;20986;-76
2022/04/24 09:36:41;;;;;;;7.67;6.87;;;;;;;;;;5135086;27;20480;-75
2022/04/24 09:39:08;;;;;;;6.57;5.97;;;;;;;;;;5134844;27;20919;-75
2022/04/24 09:41:37;;;;;;;6.57;5.93;;;;;;;;;;5136731;27;20457;-74
2022/04/24 09:44:12;;;;;;;6.97;6.27;;;;;;;;;;5136707;27;20441;-74
2022/04/24 09:46:39;;;;;;;8.20;7.33;;;;;;;;;;5133248;27;20425;-74
2022/04/24 09:49:09;;;;;;;7.67;6.90;;;;;;;;;;5131088;27;20541;-74
2022/04/24 09:51:39;;;;;;;6.83;6.27;;;;;;;;;;5133837;27;20454;-75
2022/04/24 09:54:06;;;;;;;7.03;6.33;;;;;;;;;;5134155;27;20444;-75
2022/04/24 09:56:34;;;;;;;7.03;6.33;;;;;;;;;;5134783;27;20479;-74
2022/04/24 09:59:03;;;;;;;7.57;6.60;;;;;;;;;;5134927;27;20442;-74
2022/04/24 10:01:30;;;;;;;6.90;6.30;;;;;;;;;;5133771;27;20473;-74
2022/04/24 10:03:58;;;;;;;8.27;7.47;;;;;;;;;;5136241;27;20441;-77
2022/04/24 10:06:25;;;;;;;7.47;6.63;;;;;;;;;;5136164;27;20496;-75
2022/04/24 10:08:53;;;;;;;5.93;5.40;;;;;;;;;;5133743;27;20526;-73
2022/04/24 10:11:20;;;;;;;8.30;7.03;;;;;;;;;;5130393;27;20456;-74
2022/04/24 10:13:48;;;;;;;7.47;6.87;;;;;;;;;;5132815;27;20429;-75
2022/04/24 10:16:24;;;;;;;8.03;7.23;;;;;;;;;;5133906;27;20527;-74
2022/04/24 10:18:56;;;;;;;11.00;8.47;;;;;;;;;;5134030;27;20452;-74
2022/04/24 10:21:32;;;;;;;9.03;8.23;;;;;;;;;;5133158;27;20464;-75
2022/04/24 10:24:08;;;;;;;7.40;6.80;;;;;;;;;;5133627;27;21008;-76
2022/04/24 10:26:35;;;;;;;8.43;7.70;;;;;;;;;;5115141;28;20552;-74
2022/04/24 10:29:03;;;;;;;8.00;7.30;;;;;;;;;;5115176;28;20441;-74
2022/04/24 10:31:41;;;;;;;6.03;5.53;;;;;;;;;;5124552;27;20446;-74
2022/04/24 10:34:09;;;;;;;7.80;7.00;;;;;;;;;;5129970;27;20437;-75
2022/04/24 10:36:36;;;;;;;7.70;7.00;;;;;;;;;;5132728;27;20522;-74
2022/04/24 10:39:15;;;;;;;8.07;7.27;;;;;;;;;;5133217;27;20451;-76
2022/04/24 10:41:42;;;;;;;7.63;6.93;;;;;;;;;;5133486;27;20810;-74
2022/04/24 10:44:12;;;;;;;7.37;6.77;;;;;;;;;;5133940;27;20442;-73
2022/04/24 10:46:41;;;;;;;7.20;6.60;;;;;;;;;;5133411;27;20437;-74
2022/04/24 10:49:10;;;;;;;7.83;7.17;;;;;;;;;;5114955;28;20442;-78
2022/04/24 10:51:37;;;;;;;7.57;6.87;;;;;;;;;;5113632;28;20459;-78
2022/04/24 10:54:07;;;;;;;7.70;6.97;;;;;;;;;;5123460;27;20457;-80
2022/04/24 10:56:35;;;;;;;8.37;7.63;;;;;;;;;;5130377;27;20548;-81
2022/04/24 10:59:10;;;;;;;8.90;8.03;;;;;;;;;;5132168;27;20447;-75
2022/04/24 11:01:39;;;;;;;6.90;6.30;;;;;;;;;;5132978;27;20500;-75
2022/04/24 11:04:08;;;;;;;7.10;6.50;;;;;;;;;;5133404;27;20532;-75
2022/04/24 11:06:35;;;;;;;7.60;6.97;;;;;;;;;;5132284;27;20413;-77
2022/04/24 11:09:10;;;;;;;6.63;5.90;;;;;;;;;;5133045;27;20433;-78
2022/04/24 11:11:46;;;;;;;6.00;5.50;;;;;;;;;;5132891;27;20538;-78
2022/04/24 11:14:13;;;;;;;6.90;6.20;;;;;;;;;;5134945;27;20437;-80
2022/04/24 11:16:40;;;;;;;7.03;6.40;;;;;;;;;;5132218;27;20815;-75
2022/04/24 11:19:09;;;;;;;7.97;7.20;;;;;;;;;;5130053;27;22002;-79
2022/04/24 11:21:41;;;;;;;9.77;8.70;;;;;;;;;;5130952;27;20460;-79
2022/04/24 11:24:08;;;;;;;7.23;6.60;;;;;;;;;;5131236;27;20836;-79
2022/04/24 11:26:36;;;;;;;7.47;6.77;;;;;;;;;;5132136;27;20565;-77
2022/04/24 11:29:09;;;;;;;7.53;6.60;;;;;;;;;;5132779;27;20953;-77
2022/04/24 11:31:37;;;;;;;10.13;8.00;;;;;;;;;;5131481;27;20469;-76
2022/04/24 11:34:05;;;;;;;10.60;6.53;;;;;;;;;;5133140;27;20449;-75
2022/04/24 11:36:35;;;;;;;7.70;6.90;;;;;;;;;;5130468;27;20470;-77
2022/04/24 11:39:05;;;;;;;9.50;6.50;;;;;;;;;;5130452;27;20421;-75
2022/04/24 11:41:35;;;;;;;7.43;6.73;;;;;;;;;;5132153;27;20461;-74
2022/04/24 11:44:02;;;;;;;9.77;7.60;;;;;;;;;;5132123;27;20854;-76
2022/04/24 11:51:55;;;;;;;8.27;7.57;;;;;;;;;;5132473;28;20775;-74
2022/04/24 11:54:22;;;;;;;7.63;6.93;;;;;;;;;;5135050;28;20445;-76
2022/04/24 11:56:51;;;;;;;7.50;6.50;;;;;;;;;;5134274;28;20496;-76
2022/04/24 11:59:19;;;;;;;9.30;8.50;;;;;;;;;;5129391;28;20434;-76
2022/04/24 12:01:47;;;;;;;8.83;7.70;;;;;;;;;;5129959;28;20756;-75
2022/04/24 12:04:18;;;;;;;8.73;7.60;;;;;;;;;;5131866;28;20448;-75
2022/04/24 12:06:45;;;;;;;8.03;7.33;;;;;;;;;;5130689;28;20442;-75
2022/04/24 12:09:14;;;;;;;7.10;6.10;;;;;;;;;;5131399;28;20448;-75
2022/04/24 12:11:41;;;;;;;8.00;7.30;;;;;;;;;;5133995;27;20476;-75
2022/04/24 12:14:10;;;;;;;8.10;7.37;;;;;;;;;;5136261;27;20460;-75
2022/04/24 12:16:39;;;;;;;8.17;7.47;;;;;;;;;;5138519;27;20953;-75
2022/04/24 12:19:06;;;;;;;7.93;7.13;;;;;;;;;;5137130;27;20449;-75
2022/04/24 12:21:34;;;;;;;9.13;8.23;;;;;;;;;;5134511;27;20814;-75
2022/04/24 12:24:02;;;;;;;7.70;7.03;;;;;;;;;;5133065;27;20497;-75
2022/04/24 12:26:30;;;;;;;7.90;7.20;;;;;;;;;;5131307;27;20824;-75
2022/04/24 12:29:04;;;;;;;7.97;7.17;;;;;;;;;;5135633;27;20747;-76
2022/04/24 12:31:32;;;;;;;7.83;7.13;;;;;;;;;;5136248;27;20460;-74
2022/04/24 12:33:59;;;;;;;7.10;6.40;;;;;;;;;;5136655;27;20445;-75
2022/04/24 12:36:26;;;;;;;8.67;7.87;;;;;;;;;;5135603;27;20921;-75
2022/04/24 12:38:55;;;;;;;7.00;6.40;;;;;;;;;;5117387;28;20442;-75
2022/04/24 12:41:24;;;;;;;7.93;6.60;;;;;;;;;;5117423;28;20479;-75
2022/04/24 12:43:53;;;;;;;7.50;6.80;;;;;;;;;;5125880;27;20410;-75
2022/04/24 12:46:20;;;;;;;8.57;7.37;;;;;;;;;;5132653;27;20408;-75
2022/04/24 12:48:48;;;;;;;7.93;7.20;;;;;;;;;;5133946;27;20434;-76
2022/04/24 12:51:15;;;;;;;8.27;7.47;;;;;;;;;;5135032;27;20468;-75
2022/04/24 12:53:43;;;;;;;7.53;6.93;;;;;;;;;;5135220;27;20444;-77
2022/04/24 12:56:10;;;;;;;7.90;7.13;;;;;;;;;;5135814;27;20842;-77
2022/04/24 12:58:38;;;;;;;8.97;7.10;;;;;;;;;;5135410;27;20472;-77
2022/04/24 13:01:06;;;;;;;7.70;7.10;;;;;;;;;;5136162;27;20476;-76
2022/04/24 13:03:34;;;;;;;7.60;6.90;;;;;;;;;;5132886;27;20778;-75
2022/04/24 13:06:01;;;;;;;7.70;6.90;;;;;;;;;;5132068;27;20815;-74
2022/04/24 13:08:29;;;;;;;7.40;6.60;;;;;;;;;;5134660;27;20957;-75
2022/04/24 13:10:56;;;;;;;6.63;6.03;;;;;;;;;;5135152;27;20436;-78
2022/04/24 13:13:24;;;;;;;8.00;6.73;;;;;;;;;;5135590;27;20404;-85
2022/04/24 13:18:34;;;;;;;6.50;6.00;;;;;;;;;;5114020;27;20556;-75
2022/04/24 13:21:01;;;;;;;7.03;6.43;;;;;;;;;;5116523;28;20937;-75
2022/04/24 13:23:29;;;;;;;6.77;6.17;;;;;;;;;;5115201;28;20446;-75
2022/04/24 13:25:56;;;;;;;6.50;5.93;;;;;;;;;;5123609;27;20888;-75
2022/04/24 13:28:24;;;;;;;6.60;6.00;;;;;;;;;;5129791;27;20436;-77
2022/04/24 13:30:52;;;;;;;7.77;7.10;;;;;;;;;;5134488;27;20474;-76
2022/04/24 13:33:21;;;;;;;8.43;5.90;;;;;;;;;;5133359;27;20554;-76
2022/04/24 13:35:49;;;;;;;5.87;5.33;;;;;;;;;;5134019;27;20494;-74
2022/04/24 13:38:19;;;;;;;7.03;6.40;;;;;;;;;;5135152;27;21050;-75
2022/04/24 13:40:47;;;;;;;7.07;6.47;;;;;;;;;;5134602;27;20970;-74
2022/04/24 13:43:14;;;;;;;6.70;6.10;;;;;;;;;;5135570;27;20844;-74
2022/04/24 13:45:42;;;;;;;8.10;6.40;;;;;;;;;;5136971;27;20441;-74
2022/04/24 13:48:10;;;;;;;7.13;5.00;;;;;;;;;;5132839;27;20520;-74
2022/04/24 13:50:38;;;;;;;6.70;6.10;;;;;;;;;;5131736;27;20449;-73
2022/04/24 13:53:07;;;;;;;6.73;6.23;;;;;;;;;;5132525;27;20491;-74
2022/04/24 13:55:35;;;;;;;6.90;6.20;;;;;;;;;;5132742;27;20921;-75
2022/04/24 13:58:03;;;;;;;7.10;5.97;;;;;;;;;;5134418;27;20512;-74
2022/04/24 14:00:31;;;;;;;6.77;6.17;;;;;;;;;;5135098;27;20871;-74
2022/04/24 14:02:59;;;;;;;6.00;5.50;;;;;;;;;;5133894;27;20449;-73
2022/04/24 14:05:26;;;;;;;6.20;5.60;;;;;;;;;;5136399;27;20437;-74
2022/04/24 14:07:54;;;;;;;6.40;5.30;;;;;;;;;;5136219;27;20437;-74
2022/04/24 14:10:22;;;;;;;6.03;5.43;;;;;;;;;;5133448;27;20786;-74
2022/04/24 14:12:50;;;;;;;6.23;5.73;;;;;;;;;;5130669;27;20439;-74
2022/04/24 14:15:22;;;;;;;5.47;4.97;;;;;;;;;;5131865;27;20440;-74
2022/04/24 14:17:49;;;;;;;6.13;5.60;;;;;;;;;;5133670;27;20480;-74
2022/04/24 14:20:17;;;;;;;6.30;5.70;;;;;;;;;;5133990;27;20772;-74
2022/04/24 14:22:44;;;;;;;5.90;5.40;;;;;;;;;;5134494;27;20810;-75
2022/04/24 14:25:11;;;;;;;6.13;5.53;;;;;;;;;;5134366;27;20433;-75
2022/04/24 14:27:40;;;;;;;7.17;5.50;;;;;;;;;;5135392;27;20463;-75
2022/04/24 14:30:10;;;;;;;6.80;5.60;;;;;;;;;;5136089;27;20415;-74
2022/04/24 14:32:37;;;;;;;6.03;5.50;;;;;;;;;;5133556;27;20839;-74
2022/04/24 14:35:06;;;;;;;6.23;5.63;;;;;;;;;;5130855;27;20533;-75
2022/04/24 14:37:33;;;;;;;8.23;6.33;;;;;;;;;;5132031;27;20991;-74
2022/04/24 14:40:00;;;;;;;7.37;5.73;;;;;;;;;;5133312;27;20949;-75
2022/04/24 14:42:27;;;;;;;5.73;5.10;;;;;;;;;;5133300;27;20465;-74
2022/04/24 14:44:56;;;;;;;6.27;5.67;;;;;;;;;;5133589;27;20441;-74
2022/04/24 14:58:08;;;;;;;6.57;5.97;;;;;;;;;;5130459;27;20420;-74
2022/04/24 15:00:39;;;;;;;6.50;5.90;;;;;;;;;;5132574;27;20540;-74
2022/04/24 15:03:07;;;;;;;8.40;6.40;;;;;;;;;;5132082;27;20464;-74
2022/04/24 15:05:35;;;;;;;6.70;6.00;;;;;;;;;;5133564;27;21137;-74